createdAt,value
2019-04-11T00:02:02.557Z,9.73
2019-04-11T00:04:32.950Z,11.53
2019-04-11T00:07:03.907Z,9.57
2019-04-11T00:09:34.551Z,9.07
2019-04-11T00:12:06.619Z,7.60
2019-04-11T00:14:37.951Z,12.23
2019-04-11T00:17:09.974Z,7.73
2019-04-11T00:19:40.465Z,6.40
2019-04-11T00:22:11.113Z,7.13
2019-04-11T00:24:43.032Z,11.43
2019-04-11T00:27:14.891Z,7.17
2019-04-11T00:29:45.371Z,7.67
2019-04-11T00:32:17.033Z,8.67
2019-04-11T00:34:47.481Z,13.23
2019-04-11T00:37:19.012Z,11.60
2019-04-11T00:39:50.011Z,7.63
2019-04-11T00:42:20.794Z,10.17
2019-04-11T00:44:51.488Z,7.37
2019-04-11T00:47:22.736Z,5.83
2019-04-11T00:49:53.177Z,7.80
2019-04-11T00:52:23.572Z,12.03
2019-04-11T00:54:55.289Z,8.07
2019-04-11T00:57:25.687Z,8.40
2019-04-11T00:59:56.489Z,7.53
2019-04-11T01:02:26.944Z,6.47
2019-04-11T01:04:57.269Z,10.90
2019-04-11T01:07:27.621Z,6.57
2019-04-11T01:09:58.928Z,9.93
2019-04-11T01:12:29.871Z,10.83
2019-04-11T01:15:00.264Z,8.57
2019-04-11T01:17:31.530Z,8.77
2019-04-11T01:20:02.967Z,13.23
2019-04-11T01:22:34.014Z,8.37
2019-04-11T01:25:04.934Z,7.53
2019-04-11T01:27:36.239Z,9.57
2019-04-11T01:30:09.233Z,9.60
2019-04-11T01:32:40.277Z,9.63
2019-04-11T01:35:10.939Z,6.43
2019-04-11T01:37:41.953Z,10.23
2019-04-11T01:40:12.452Z,6.90
2019-04-11T01:42:43.710Z,8.37
2019-04-11T01:45:17.065Z,6.70
2019-04-11T01:47:57.379Z,7.50
2019-04-11T01:50:30.828Z,10.37
2019-04-11T01:53:02.546Z,9.07
2019-04-11T01:55:33.097Z,14.70
2019-04-11T01:58:04.507Z,11.40
2019-04-11T02:00:54.670Z,10.83
2019-04-11T02:03:37.228Z,7.60
2019-04-11T02:06:07.725Z,7.47
2019-04-11T02:08:38.069Z,8.47
2019-04-11T02:11:09.860Z,7.50
2019-04-11T02:13:40.206Z,10.37
2019-04-11T02:16:10.641Z,12.90
2019-04-11T02:18:40.991Z,8.90
2019-04-11T02:21:11.627Z,11.97
2019-04-11T02:24:05.791Z,6.37
2019-04-11T02:26:37.614Z,7.43
2019-04-11T02:29:10.904Z,9.47
2019-04-11T02:31:42.403Z,7.60
2019-04-11T02:34:13.626Z,9.83
2019-04-11T02:36:45.177Z,11.00
2019-04-11T02:39:19.183Z,9.13
2019-04-11T02:41:48.177Z,6.70
2019-04-11T02:44:53.219Z,7.40
2019-04-11T02:47:00.718Z,10.07
2019-04-11T02:49:25.773Z,8.70
2019-04-11T02:51:56.109Z,10.43
2019-04-11T02:54:28.214Z,9.20
2019-04-11T02:57:02.546Z,7.83
2019-04-11T02:59:34.370Z,8.43
2019-04-11T03:02:06.903Z,8.70
2019-04-11T03:04:39.196Z,11.93
2019-04-11T03:07:12.328Z,9.07
2019-04-11T03:09:44.041Z,8.20
2019-04-11T03:12:15.609Z,8.17
2019-04-11T03:15:07.814Z,10.77
2019-04-11T03:17:23.052Z,9.70
2019-04-11T03:20:02.696Z,10.43
2019-04-11T03:22:26.810Z,10.60
2019-04-11T03:25:00.054Z,11.00
2019-04-11T03:27:30.514Z,13.00
2019-04-11T03:30:03.169Z,8.07
2019-04-11T03:33:29.860Z,7.30
2019-04-11T03:36:01.243Z,7.53
2019-04-11T03:38:00.393Z,10.47
2019-04-11T03:40:32.105Z,7.80
2019-04-11T03:42:59.899Z,9.53
2019-04-11T03:45:40.144Z,14.77
2019-04-11T03:48:06.110Z,11.50
2019-04-11T03:50:26.087Z,9.07
2019-04-11T03:52:57.849Z,7.30
2019-04-11T03:55:30.751Z,8.97
2019-04-11T03:58:01.226Z,8.43
2019-04-11T04:00:36.205Z,9.10
2019-04-11T04:03:06.150Z,6.97
2019-04-11T04:05:38.985Z,9.33
2019-04-11T04:08:10.777Z,10.27
2019-04-11T04:11:00.678Z,9.43
2019-04-11T04:13:31.981Z,9.77
2019-04-11T04:16:27.350Z,12.93
2019-04-11T04:19:01.049Z,12.97
2019-04-11T04:21:57.478Z,6.67
2019-04-11T04:24:34.075Z,8.40
2019-04-11T04:27:04.556Z,8.70
2019-04-11T04:29:37.735Z,13.03
2019-04-11T04:32:08.197Z,10.97
2019-04-11T04:34:40.149Z,9.53
2019-04-11T04:37:12.029Z,11.50
2019-04-11T04:39:43.562Z,9.43
2019-04-11T04:42:23.839Z,7.17
2019-04-11T04:44:46.779Z,8.90
2019-04-11T04:47:25.020Z,15.20
2019-04-11T04:49:52.221Z,7.07
2019-04-11T04:52:22.730Z,8.97
2019-04-11T04:54:54.824Z,9.50
2019-04-11T04:57:26.784Z,7.00
2019-04-11T04:59:59.898Z,8.27
2019-04-11T05:02:30.941Z,10.07
2019-04-11T05:05:06.139Z,9.63
2019-04-11T05:07:40.155Z,11.80
2019-04-11T05:10:09.049Z,10.50
2019-04-11T05:12:39.476Z,13.37
2019-04-11T05:15:12.189Z,12.47
2019-04-11T05:17:44.465Z,11.90
2019-04-11T05:20:16.190Z,13.47
2019-04-11T05:22:47.255Z,7.67
2019-04-11T05:25:20.368Z,10.90
2019-04-11T05:27:50.749Z,11.00
2019-04-11T05:30:21.159Z,8.80
2019-04-11T05:32:51.451Z,10.17
2019-04-11T05:35:34.378Z,7.50
2019-04-11T05:38:04.988Z,13.00
2019-04-11T05:40:35.273Z,9.80
2019-04-11T05:43:05.995Z,16.97
2019-04-11T05:45:36.507Z,12.37
2019-04-11T05:48:10.156Z,8.40
2019-04-11T05:50:45.466Z,10.10
2019-04-11T05:53:13.697Z,9.83
2019-04-11T05:55:47.158Z,15.80
2019-04-11T05:58:17.678Z,7.20
2019-04-11T06:00:57.867Z,9.90
2019-04-11T06:03:28.442Z,7.50
2019-04-11T06:06:18.398Z,8.97
2019-04-11T06:08:49.482Z,12.83
2019-04-11T06:11:24.302Z,7.47
2019-04-11T06:14:13.112Z,10.07
2019-04-11T06:16:56.155Z,7.60
2019-04-11T06:19:45.810Z,9.23
2019-04-11T06:22:17.163Z,7.33
2019-04-11T06:25:09.190Z,6.93
2019-04-11T06:27:49.668Z,7.03
2019-04-11T06:30:30.521Z,6.03
2019-04-11T06:33:13.142Z,7.07
2019-04-11T06:36:14.694Z,6.17
2019-04-11T06:39:03.029Z,6.03
2019-04-11T06:42:01.621Z,8.00
2019-04-11T06:44:52.128Z,9.83
2019-04-11T06:47:45.077Z,10.97
2019-04-11T06:50:27.047Z,8.40
2019-04-11T06:52:58.204Z,8.10
2019-04-11T06:56:03.573Z,8.23
2019-04-11T06:58:39.995Z,7.07
2019-04-11T07:01:14.498Z,8.77
2019-04-11T07:03:49.136Z,6.60
2019-04-11T07:06:23.556Z,6.67
2019-04-11T07:09:16.715Z,4.83
2019-04-11T07:11:53.737Z,8.83
2019-04-11T07:14:33.262Z,8.43
2019-04-11T07:17:21.491Z,6.60
2019-04-11T07:20:06.928Z,6.77
2019-04-11T07:22:55.671Z,5.30
2019-04-11T07:25:48.733Z,7.97
2019-04-11T07:28:36.809Z,7.90
2019-04-11T07:31:25.461Z,9.47
2019-04-11T07:34:19.368Z,5.53
2019-04-11T07:37:07.397Z,5.63
2019-04-11T07:40:03.321Z,5.17
2019-04-11T07:42:52.851Z,9.17
2019-04-11T07:45:28.509Z,9.73
2019-04-11T07:48:07.114Z,6.50
2019-04-11T07:50:36.912Z,9.50
2019-04-11T07:53:08.688Z,15.00
2019-04-11T07:55:40.203Z,5.27
2019-04-11T07:58:47.919Z,6.60
2019-04-11T08:01:49.323Z,6.20
2019-04-11T08:04:38.679Z,8.53
2019-04-11T08:07:28.269Z,5.67
2019-04-11T08:10:03.003Z,6.67
2019-04-11T08:12:34.657Z,5.77
2019-04-11T08:15:27.923Z,7.80
2019-04-11T08:18:00.402Z,6.97
2019-04-11T08:20:59.078Z,6.63
2019-04-11T08:23:29.792Z,5.00
2019-04-11T08:26:33.935Z,6.47
2019-04-11T08:29:10.600Z,6.03
2019-04-11T08:35:33.149Z,3.13
2019-04-11T08:38:08.188Z,4.27
2019-04-11T08:40:45.210Z,3.30
2019-04-11T08:43:19.747Z,5.37
2019-04-11T08:45:54.597Z,5.93
2019-04-11T08:48:25.085Z,7.03
2019-04-11T08:51:00.951Z,6.10
2019-04-11T08:53:55.187Z,4.13
2019-04-11T08:56:25.845Z,3.77
2019-04-11T08:59:29.250Z,3.05
2019-04-11T09:02:00.416Z,5.15
2019-04-11T09:05:12.001Z,13.33
2019-04-11T09:07:43.459Z,10.58
2019-04-11T09:10:33.803Z,4.43
2019-04-11T09:13:13.634Z,3.93
2019-04-11T09:16:01.781Z,4.07
2019-04-11T09:18:32.487Z,7.57
2019-04-11T09:21:34.637Z,4.50
2019-04-11T09:24:10.275Z,6.70
2019-04-11T09:26:58.744Z,5.30
2019-04-11T09:29:32.432Z,5.37
2019-04-11T09:32:22.216Z,4.70
2019-04-11T09:35:00.539Z,4.27
2019-04-11T09:37:33.925Z,4.57
2019-04-11T09:40:24.285Z,5.30
2019-04-11T09:43:12.475Z,5.97
2019-04-11T09:45:57.701Z,5.57
2019-04-11T09:48:46.371Z,9.47
2019-04-11T09:51:40.106Z,4.73
2019-04-11T09:54:30.699Z,4.60
2019-04-11T09:57:38.256Z,3.10
2019-04-11T10:00:28.889Z,3.95
2019-04-11T10:03:06.666Z,6.78
2019-04-11T10:06:05.285Z,4.58
2019-04-11T10:08:57.615Z,5.87
2019-04-11T10:11:59.161Z,4.07
2019-04-11T10:14:31.497Z,4.20
2019-04-11T10:17:22.616Z,4.33
2019-04-11T10:20:00.849Z,7.37
2019-04-11T10:22:54.351Z,9.77
2019-04-11T10:25:37.194Z,5.13
2019-04-11T10:28:27.280Z,3.80
2019-04-11T10:31:18.125Z,7.10
2019-04-11T10:34:14.461Z,4.37
2019-04-11T10:37:13.724Z,5.37
2019-04-11T10:40:04.549Z,5.27
2019-04-11T10:42:35.236Z,3.90
2019-04-11T10:45:41.115Z,11.18
2019-04-11T10:48:11.713Z,2.95
2019-04-11T10:51:13.051Z,2.40
2019-04-11T10:53:43.838Z,5.35
2019-04-11T10:56:35.976Z,3.37
2019-04-11T10:59:07.115Z,3.62
2019-04-11T11:01:56.087Z,2.37
2019-04-11T11:04:45.592Z,2.90
2019-04-11T11:07:21.765Z,18.40
2019-04-11T11:09:59.414Z,8.03
2019-04-11T11:12:37.776Z,3.22
2019-04-11T11:15:11.538Z,3.75
2019-04-11T11:18:32.032Z,2.95
2019-04-11T11:20:55.014Z,2.87
2019-04-11T11:23:39.266Z,4.77
2019-04-11T11:26:12.633Z,3.37
2019-04-11T11:28:48.783Z,4.00
2019-04-11T11:31:36.175Z,3.20
2019-04-11T11:34:09.295Z,6.28
2019-04-11T11:36:58.603Z,5.50
2019-04-11T11:39:49.638Z,3.57
2019-04-11T11:42:38.665Z,4.13
2019-04-11T11:45:19.438Z,3.93
2019-04-11T11:48:23.313Z,4.10
2019-04-11T11:50:53.279Z,3.90
2019-04-11T11:53:31.301Z,3.30
2019-04-11T11:56:02.135Z,4.80
2019-04-11T11:58:58.021Z,2.87
2019-04-11T12:01:27.435Z,4.67
2019-04-11T12:04:32.932Z,4.00
2019-04-11T12:07:06.018Z,3.77
2019-04-11T12:10:04.358Z,6.80
2019-04-11T12:12:48.419Z,4.60
2019-04-11T12:15:37.228Z,4.25
2019-04-11T12:18:18.479Z,2.92
2019-04-11T12:20:57.079Z,3.40
2019-04-11T12:23:46.593Z,2.33
2019-04-11T12:26:06.375Z,2.92
2019-04-11T12:29:14.306Z,2.50
2019-04-11T12:31:50.314Z,4.97
2019-04-11T12:34:38.690Z,2.53
2019-04-11T12:37:14.813Z,8.00
2019-04-11T12:40:04.600Z,4.77
2019-04-11T12:42:37.462Z,4.10
2019-04-11T12:45:36.941Z,6.33
2019-04-11T12:48:11.951Z,3.77
2019-04-11T12:50:58.364Z,4.67
2019-04-11T12:53:28.937Z,3.57
2019-04-11T12:56:21.603Z,2.97
2019-04-11T12:59:04.260Z,3.83
2019-04-11T13:02:02.873Z,2.90
2019-04-11T13:04:35.331Z,2.43
2019-04-11T13:07:34.304Z,10.77
2019-04-11T13:10:26.307Z,3.53
2019-04-11T13:13:19.026Z,3.00
2019-04-11T13:16:11.425Z,4.37
2019-04-11T13:18:51.231Z,5.07
2019-04-11T13:21:36.346Z,4.13
2019-04-11T13:24:24.705Z,3.60
2019-04-11T13:27:14.016Z,3.43
2019-04-11T13:30:03.341Z,3.20
2019-04-11T13:32:57.707Z,4.07
2019-04-11T13:35:41.129Z,5.33
2019-04-11T13:38:14.763Z,4.13
2019-04-11T13:41:20.712Z,3.73
2019-04-11T13:43:57.002Z,3.00
2019-04-11T13:46:46.315Z,2.90
2019-04-11T13:49:35.002Z,4.07
2019-04-11T13:52:28.735Z,5.63
2019-04-11T13:55:03.910Z,3.77
2019-04-11T13:57:57.618Z,4.70
2019-04-11T14:00:39.926Z,4.97
2019-04-11T14:03:22.464Z,8.20
2019-04-11T14:05:53.038Z,3.57
2019-04-11T14:08:28.152Z,6.00
2019-04-11T14:11:06.668Z,5.53
2019-04-11T14:13:41.784Z,9.40
2019-04-11T14:16:20.699Z,3.90
2019-04-11T14:19:18.161Z,7.33
2019-04-11T14:21:49.365Z,3.47
2019-04-11T14:24:29.794Z,8.33
2019-04-11T14:27:02.760Z,5.03
2019-04-11T14:29:54.726Z,4.40
2019-04-11T14:32:27.887Z,4.20
2019-04-11T14:35:23.394Z,6.13
2019-04-11T14:38:10.820Z,4.10
2019-04-11T14:41:11.829Z,3.30
2019-04-11T14:43:46.887Z,3.27
2019-04-11T14:46:25.746Z,3.10
2019-04-11T14:49:11.177Z,3.30
2019-04-11T14:52:00.497Z,3.83
2019-04-11T14:54:39.974Z,4.43
2019-04-11T14:57:17.986Z,3.27
2019-04-11T14:59:53.870Z,3.03
2019-04-11T15:02:41.359Z,2.97
2019-04-11T15:05:26.599Z,3.23
2019-04-11T15:07:58.527Z,3.70
2019-04-11T15:10:54.064Z,5.30
2019-04-11T15:13:27.480Z,5.90
2019-04-11T15:16:15.431Z,3.30
2019-04-11T15:18:51.790Z,4.60
2019-04-11T15:21:39.999Z,6.47
2019-04-11T15:24:11.054Z,6.73
2019-04-11T15:26:59.293Z,6.50
2019-04-11T15:29:32.292Z,5.40
2019-04-11T15:32:20.585Z,4.57
2019-04-11T15:34:56.374Z,9.67
2019-04-11T15:37:48.081Z,6.77
2019-04-11T15:40:29.385Z,11.57
2019-04-11T15:43:21.819Z,4.57
2019-04-11T15:46:14.659Z,3.63
2019-04-11T15:49:04.979Z,5.87
2019-04-11T15:51:39.605Z,3.53
2019-04-11T15:54:17.866Z,3.70
2019-04-11T15:56:54.423Z,19.07
2019-04-11T15:59:54.289Z,3.27
2019-04-11T16:02:43.732Z,3.17
2019-04-11T16:05:49.213Z,7.30
2019-04-11T16:08:39.516Z,6.07
2019-04-11T16:11:28.736Z,7.07
2019-04-11T16:14:18.052Z,3.53
2019-04-11T16:17:13.990Z,6.33
2019-04-11T16:19:47.862Z,5.47
2019-04-11T16:22:43.170Z,3.47
2019-04-11T16:25:18.682Z,8.20
2019-04-11T16:28:08.327Z,4.37
2019-04-11T16:30:40.912Z,3.23
2019-04-11T16:33:25.636Z,3.47
2019-04-11T16:36:17.065Z,3.60
2019-04-11T16:39:11.308Z,3.73
2019-04-11T16:41:56.043Z,3.80
2019-04-11T16:44:46.227Z,4.17
2019-04-11T16:47:43.996Z,4.03
2019-04-11T16:50:14.686Z,3.50
2019-04-11T16:52:45.016Z,21.27
2019-04-11T16:55:15.375Z,3.30
2019-04-11T16:57:45.776Z,6.97
2019-04-11T17:00:20.369Z,5.10
2019-04-11T17:02:48.579Z,8.80
2019-04-11T17:05:19.126Z,5.33
2019-04-11T17:08:25.764Z,6.97
2019-04-11T17:11:21.562Z,2.97
2019-04-11T17:13:52.030Z,2.73
2019-04-11T17:16:22.521Z,3.07
2019-04-11T17:18:52.826Z,6.40
2019-04-11T17:21:23.417Z,3.70
2019-04-11T17:23:58.233Z,4.90
2019-04-11T17:26:28.990Z,16.13
2019-04-11T17:28:59.303Z,13.30
2019-04-11T17:31:31.464Z,9.57
2019-04-11T17:34:02.500Z,9.77
2019-04-11T17:36:33.953Z,3.97
2019-04-11T17:39:07.157Z,4.27
2019-04-11T17:41:41.725Z,10.80
2019-04-11T17:44:11.373Z,14.53
2019-04-11T17:46:41.705Z,15.43
2019-04-11T17:49:12.039Z,15.70
2019-04-11T17:51:42.916Z,7.90
2019-04-11T17:54:14.568Z,15.10
2019-04-11T17:56:44.867Z,5.43
2019-04-11T17:59:18.080Z,6.23
2019-04-11T18:01:48.445Z,29.63
2019-04-11T18:04:18.815Z,7.67
2019-04-11T18:06:49.380Z,9.43
2019-04-11T18:09:25.497Z,20.90
2019-04-11T18:11:55.876Z,55.10
2019-04-11T18:14:24.271Z,29.47
2019-04-11T18:16:54.674Z,41.53
2019-04-11T18:19:25.380Z,67.57
2019-04-11T18:22:07.045Z,35.97
2019-04-11T18:24:28.265Z,13.77
2019-04-11T18:26:59.955Z,23.07
2019-04-11T18:29:30.344Z,11.50
2019-04-11T18:32:00.620Z,14.93
2019-04-11T18:34:31.843Z,16.37
2019-04-11T18:37:02.765Z,55.43
2019-04-11T18:39:33.641Z,32.53
2019-04-11T18:42:05.439Z,29.03
2019-04-11T18:44:35.836Z,67.20
2019-04-11T18:47:06.141Z,27.03
2019-04-11T18:49:36.562Z,14.20
2019-04-11T18:52:06.972Z,10.17
2019-04-11T18:54:37.601Z,30.63
2019-04-11T18:57:08.056Z,23.83
2019-04-11T18:59:39.303Z,14.13
2019-04-11T19:02:10.453Z,9.27
2019-04-11T19:04:42.217Z,40.03
2019-04-11T19:07:13.829Z,16.60
2019-04-11T19:09:46.693Z,9.00
2019-04-11T19:12:20.587Z,11.70
2019-04-11T19:18:23.428Z,24.83
2019-04-11T19:20:55.441Z,16.10
2019-04-11T19:23:26.106Z,7.87
2019-04-11T19:25:56.646Z,9.03
2019-04-11T19:28:27.119Z,10.47
2019-04-11T19:30:57.479Z,9.47
2019-04-11T19:33:27.884Z,16.70
2019-04-11T19:35:58.509Z,12.33
2019-04-11T19:38:31.267Z,9.90
2019-04-11T19:41:01.615Z,9.60
2019-04-11T19:43:32.206Z,9.13
2019-04-11T19:46:50.972Z,16.03
2019-04-11T19:49:20.662Z,22.63
2019-04-11T19:51:51.383Z,14.40
2019-04-11T19:54:21.784Z,11.27
2019-04-11T19:56:57.400Z,13.00
2019-04-11T19:59:29.136Z,10.60
2019-04-11T20:01:59.526Z,8.87
2019-04-11T20:04:30.260Z,16.40
2019-04-11T20:07:02.079Z,14.00
2019-04-11T20:09:32.441Z,23.17
2019-04-11T20:12:02.773Z,19.47
2019-04-11T20:14:34.914Z,14.73
2019-04-11T20:17:05.494Z,9.93
2019-04-11T20:19:35.843Z,16.60
2019-04-11T20:22:08.600Z,22.47
2019-04-11T20:24:38.349Z,15.00
2019-04-11T20:27:08.791Z,20.57
2019-04-11T20:29:39.129Z,13.90
2019-04-11T20:32:09.847Z,16.13
2019-04-11T20:34:40.178Z,15.00
2019-04-11T20:37:13.002Z,19.07
2019-04-11T20:39:46.476Z,26.67
2019-04-11T20:42:17.082Z,10.43
2019-04-11T20:44:46.718Z,21.77
2019-04-11T20:47:17.110Z,15.33
2019-04-11T20:49:49.089Z,9.77
2019-04-11T20:52:19.458Z,13.83
2019-04-11T20:54:49.867Z,8.47
2019-04-11T20:57:25.660Z,8.80
2019-04-11T20:59:52.298Z,20.70
2019-04-11T21:02:22.705Z,8.50
2019-04-11T21:04:52.995Z,6.27
2019-04-11T21:07:23.368Z,8.33
2019-04-11T21:09:53.716Z,9.73
2019-04-11T21:12:24.100Z,15.83
2019-04-11T21:14:54.455Z,10.83
2019-04-11T21:17:24.805Z,9.70
2019-04-11T21:19:57.133Z,15.30
2019-04-11T21:22:27.470Z,8.53
2019-04-11T21:24:59.547Z,19.23
2019-04-11T21:27:30.032Z,9.03
2019-04-11T21:30:00.622Z,14.23
2019-04-11T21:32:31.841Z,9.07
2019-04-11T21:35:03.170Z,10.70
2019-04-11T21:37:33.597Z,11.00
2019-04-11T21:40:05.808Z,9.40
2019-04-11T21:42:36.803Z,13.80
2019-04-11T21:45:07.405Z,9.57
2019-04-11T21:47:38.090Z,9.23
2019-04-11T21:50:09.428Z,8.10
2019-04-11T21:52:43.306Z,8.97
2019-04-11T21:55:15.133Z,11.37
2019-04-11T21:57:48.340Z,10.17
2019-04-11T22:00:23.518Z,27.43
2019-04-11T22:02:54.488Z,16.43
2019-04-11T22:05:28.973Z,10.80
2019-04-11T22:07:57.534Z,13.63
2019-04-11T22:10:28.057Z,10.40
2019-04-11T22:12:58.379Z,7.97
2019-04-11T22:15:28.891Z,11.17
2019-04-11T22:17:59.267Z,8.13
2019-04-11T22:20:29.643Z,8.77
2019-04-11T22:23:01.598Z,7.83
2019-04-11T22:25:32.028Z,8.60
2019-04-11T22:28:02.609Z,8.50
2019-04-11T22:30:33.062Z,7.67
2019-04-11T22:33:08.451Z,8.47
2019-04-11T22:35:38.828Z,8.80
2019-04-11T22:38:09.235Z,11.37
2019-04-11T22:40:39.638Z,13.10
2019-04-11T22:43:22.533Z,17.80
2019-04-11T22:45:42.067Z,10.23
2019-04-11T22:48:12.422Z,20.33
2019-04-11T22:50:42.752Z,10.23
2019-04-11T22:53:13.617Z,12.43
2019-04-11T22:55:43.953Z,14.53
2019-04-11T22:58:14.789Z,9.90
2019-04-11T23:00:45.968Z,11.40
2019-04-11T23:03:32.966Z,10.27
2019-04-11T23:06:03.404Z,21.33
2019-04-11T23:08:33.855Z,13.67
2019-04-11T23:11:04.569Z,12.00
2019-04-11T23:13:35.000Z,15.40
2019-04-11T23:16:05.401Z,7.00
2019-04-11T23:18:35.719Z,5.77
2019-04-11T23:21:06.094Z,6.53
2019-04-11T23:23:38.015Z,5.93
2019-04-11T23:26:08.315Z,5.97
2019-04-11T23:28:39.055Z,7.23
2019-04-11T23:31:09.373Z,6.43
2019-04-11T23:33:39.699Z,8.27
2019-04-11T23:36:10.335Z,6.90
2019-04-11T23:38:40.695Z,7.30
2019-04-11T23:41:11.038Z,8.77
2019-04-11T23:43:41.369Z,8.10
2019-04-11T23:46:11.715Z,9.93
2019-04-11T23:48:42.078Z,6.67
2019-04-11T23:51:12.424Z,8.00
2019-04-11T23:53:42.805Z,6.67
2019-04-11T23:56:13.213Z,7.33
2019-04-11T23:58:43.573Z,5.67
